Québec, Quebec

13:20 EDT le 23 août 2014 (GMT -0400)
lac st-charles | Change Station
CLOSE
Current Station
Stations météorologiques personnelles
Location: quebec city, Quebec
Altitude: 200 ft
Stations météo à proximité

Alt. 200 ft 46.80 °N, 71.40 °W | Updated 8 seconds ago

Partly Cloudy
Partiellement nuageux
75.8 ° F
Paraît 78 ° F
N
0.0
Vent Variable Vent de NE
Gusts 0.0 mph

Aujourd’hui il est prévu de faire pratiquement la même température qu’hier.

Aujourd'hui
Haut(e) -- | Bas -- ° F
--% Risque de précip.
Hier
Haut(e) -- | Bas -- ° F
Precip. -- pouce
5:53 AM 7:41 PM
Lune descendante, 3% visible
Pression 30.16 pouce
Visibilité 30.0 Miles terrestres
Nuages Peu 4000 ft
indice de chaleur 78 ° F
Point de rosée 61 ° F
Humidité 60%
Précipitations 0.00 pouce
Profondeur de la couche neigeuse Non disponible.
UV 8 sur 12
Pollen Non disponible.
Qualité de l'air Non disponible.
Flu Activity Non disponible.
METAR CYQB 231700Z VRB04KT 30SM FEW040 24/15 A3016 RMK SC1 CU ASOCTD SLP213 DENSITY ALT 1000FT

More Conditions Fewer Conditions

Pression 30.16 pouce
Visibilité 30.0 Miles terrestres
Nuages Peu 4000 ft
indice de chaleur 78 ° F
Point de rosée 61 ° F
Humidité 60%
Précipitations 0.00 pouce
Profondeur de la couche neigeuse Non disponible.
UV 8 sur 12
Pollen Non disponible.
Qualité de l'air Non disponible.
Flu Activity Non disponible.
METAR CYQB 231700Z VRB04KT 30SM FEW040 24/15 A3016 RMK SC1 CU ASOCTD SLP213 DENSITY ALT 1000FT

More Conditions Fewer Conditions

10-Day Weather Forecast

Almanac

Astronomie

Aug. 23, 2014 Lever Coucher
Temps réel 05:53 EDT 19:41 EDT
Crépuscule civil 05:21 EDT 20:14 EDT
Crépuscule nautique 04:41 EDT 20:53 EDT
Crépuscule astronomique 03:58 EDT 21:36 EDT
Lune 04:04 EDT 18:25 EDT
Durée de lumière visible 14h 52m
Longueur du jour
13h 48m
Tomorrow will be 3m 7s shorter.
Lune descendante, 3% of the Moon is Illuminated
Aujourd'hui
Lune descendante
août 25
Nouveau
Sep 2
Premier quartier
Sep 8
Pleine lune
Sep 15
Dernier quartier

Extrêmes aujourd'hui

Country Highs Country Lows

Community

WunderPhotos

Upload Photos

1,746,534 Photos téléchargées !

WunderBlogs® & News

By Dr. Jeff Masters
Director of Meteorology, Weather Underground
By Kari Strenfel
Meteorologist, Weather Underground
By Christopher C. Burt
Weather Historian, Weather Underground
August 23, 2014
August 23, 2014
August 23, 2014

Nearby

Qualité de l'air

Not available.

Épaisseur de neige

Not available.

Activité sismique

Ville Distance Mag. Time & Date
No recent earthquake activity has been reported nearby.
Minimum magnitude displayed is 2.5.

Températures des eaux côtières

Lieu Température
Aucun rapport de station

Stations météo à proximité